createdAt,value
2018-06-21T00:00:21.218Z,91.80
2018-06-21T00:02:51.240Z,91.90
2018-06-21T00:05:21.001Z,91.60
2018-06-21T00:07:51.082Z,91.40
2018-06-21T00:10:20.841Z,91.30
2018-06-21T00:12:50.540Z,91.10
2018-06-21T00:15:20.222Z,91.00
2018-06-21T00:17:50.120Z,91.00
2018-06-21T00:20:19.820Z,91.20
2018-06-21T00:22:49.520Z,91.40
2018-06-21T00:27:48.840Z,92.60
2018-06-21T00:30:18.780Z,93.60
2018-06-21T00:32:48.420Z,94.20
2018-06-21T00:35:18.080Z,94.00
2018-06-21T00:40:16.880Z,93.80
2018-06-21T00:42:46.780Z,93.60
2018-06-21T00:45:16.480Z,93.40
2018-06-21T00:47:46.386Z,93.20
2018-06-21T00:50:15.862Z,93.50
2018-06-21T00:52:46.782Z,93.80
2018-06-21T00:55:23.820Z,94.20
2018-06-21T00:57:53.640Z,94.50
2018-06-21T01:00:26.721Z,94.60
2018-06-21T01:02:56.559Z,94.60
2018-06-21T01:05:26.379Z,95.10
2018-06-21T01:07:56.200Z,95.30
2018-06-21T01:10:26.660Z,95.60
2018-06-21T01:12:56.319Z,95.30
2018-06-21T01:15:26.119Z,95.20
2018-06-21T01:17:55.729Z,95.10
2018-06-21T01:20:25.599Z,94.90
2018-06-21T01:22:59.219Z,94.70
2018-06-21T01:25:28.976Z,94.70
2018-06-21T01:27:58.739Z,94.90
2018-06-21T01:30:28.439Z,95.40
2018-06-21T01:32:58.279Z,95.30
2018-06-21T01:35:29.319Z,95.20
2018-06-21T01:37:59.080Z,95.10
2018-06-21T01:40:28.842Z,95.20
2018-06-21T01:42:58.600Z,95.60
2018-06-21T01:45:28.380Z,95.30
2018-06-21T01:47:58.139Z,96.00
2018-06-21T01:50:28.199Z,97.00
2018-06-21T01:52:58.239Z,97.30
2018-06-21T01:55:27.979Z,97.30
2018-06-21T01:57:57.799Z,96.90
2018-06-21T02:00:27.472Z,96.70
2018-06-21T02:02:57.723Z,96.60
2018-06-21T02:05:27.404Z,96.50
2018-06-21T02:07:57.145Z,96.40
2018-06-21T02:10:26.924Z,96.30
2018-06-21T02:12:56.863Z,96.30
2018-06-21T02:15:26.704Z,96.20
2018-06-21T02:17:56.324Z,96.10
2018-06-21T02:20:25.859Z,95.90
2018-06-21T02:22:55.638Z,95.90
2018-06-21T02:25:25.480Z,95.80
2018-06-21T02:27:55.559Z,95.70
2018-06-21T02:30:25.278Z,95.60
2018-06-21T02:35:24.620Z,95.60
2018-06-21T02:37:54.305Z,95.60
2018-06-21T02:40:24.758Z,95.80
2018-06-21T02:42:54.561Z,96.00
2018-06-21T02:45:24.818Z,95.90
2018-06-21T02:47:54.518Z,96.00
2018-06-21T02:50:24.038Z,96.10
2018-06-21T02:52:53.559Z,96.30
2018-06-21T02:55:23.206Z,96.40
2018-06-21T02:57:52.978Z,96.40
2018-06-21T03:00:23.130Z,96.40
2018-06-21T03:02:52.771Z,96.50
2018-06-21T03:05:22.623Z,96.50
2018-06-21T03:07:52.383Z,96.50
2018-06-21T03:10:21.923Z,96.60
2018-06-21T03:12:51.562Z,96.60
2018-06-21T03:15:21.330Z,96.70
2018-06-21T03:17:51.103Z,96.80
2018-06-21T03:20:21.303Z,96.80
2018-06-21T03:22:51.083Z,97.10
2018-06-21T03:25:21.004Z,97.20
2018-06-21T03:30:45.282Z,97.30
2018-06-21T03:35:44.242Z,97.20
2018-06-21T03:38:15.400Z,97.30
2018-06-21T03:40:45.139Z,97.50
2018-06-21T03:43:15.120Z,96.50
2018-06-21T03:45:44.920Z,94.50
2018-06-21T03:48:14.681Z,92.60
2018-06-21T03:50:44.399Z,91.30
2018-06-21T03:53:13.959Z,90.00
2018-06-21T03:55:43.640Z,87.20
2018-06-21T03:58:13.480Z,85.30
2018-06-21T04:00:43.820Z,84.20
2018-06-21T04:03:15.549Z,82.50
2018-06-21T04:05:45.260Z,80.40
2018-06-21T04:08:15.399Z,77.60
2018-06-21T04:10:45.160Z,75.30
2018-06-21T04:13:15.239Z,73.70
2018-06-21T04:15:45.584Z,72.10
2018-06-21T04:18:15.323Z,70.40
2018-06-21T04:20:45.120Z,69.40
2018-06-21T04:23:15.499Z,66.70
2018-06-21T04:25:49.280Z,66.80
2018-06-21T04:28:30.759Z,66.60
2018-06-21T04:31:01.119Z,64.20
2018-06-21T04:33:31.199Z,66.90
2018-06-21T04:36:01.000Z,68.80
2018-06-21T04:38:30.759Z,69.40
2018-06-21T04:41:00.519Z,71.40
2018-06-21T04:43:30.259Z,71.90
2018-06-21T04:46:00.060Z,73.60
2018-06-21T04:48:29.781Z,73.70
2018-06-21T04:50:59.559Z,73.70
2018-06-21T04:53:29.339Z,73.80
2018-06-21T04:56:00.479Z,74.30
2018-06-21T04:58:30.118Z,73.10
2018-06-21T05:01:03.721Z,74.70
2018-06-21T05:03:33.444Z,74.30
2018-06-21T05:06:03.183Z,75.20
2018-06-21T05:08:33.021Z,73.40
2018-06-21T05:11:02.778Z,72.60
2018-06-21T05:13:32.519Z,74.70
2018-06-21T05:16:02.918Z,76.10
2018-06-21T05:18:32.678Z,73.10
2018-06-21T05:21:02.438Z,73.70
2018-06-21T05:23:32.218Z,72.30
2018-06-21T05:26:01.938Z,71.20
2018-06-21T05:28:31.638Z,71.20
2018-06-21T05:31:01.499Z,71.50
2018-06-21T05:33:31.258Z,70.10
2018-06-21T05:36:00.982Z,68.80
2018-06-21T05:38:32.118Z,67.10
2018-06-21T05:41:02.138Z,67.00
2018-06-21T05:43:31.841Z,67.40
2018-06-21T05:46:01.580Z,66.70
2018-06-21T05:48:31.418Z,65.70
2018-06-21T05:51:01.058Z,66.80
2018-06-21T05:53:30.666Z,65.00
2018-06-21T05:56:00.339Z,64.00
2018-06-21T05:58:30.378Z,64.20
2018-06-21T06:01:00.202Z,66.70
2018-06-21T06:03:30.339Z,67.30
2018-06-21T06:06:00.459Z,68.20
2018-06-21T06:08:30.045Z,66.20
2018-06-21T06:10:59.794Z,67.40
2018-06-21T06:15:58.659Z,67.10
2018-06-21T06:18:28.299Z,66.50
2018-06-21T06:20:57.816Z,68.00
2018-06-21T06:23:27.419Z,69.90
2018-06-21T06:25:56.998Z,69.30
2018-06-21T06:28:26.606Z,68.80
2018-06-21T06:30:56.161Z,68.50
2018-06-21T06:33:30.059Z,68.70
2018-06-21T06:35:59.646Z,69.20
2018-06-21T06:38:29.179Z,69.70
2018-06-21T06:40:58.843Z,68.10
2018-06-21T06:43:28.622Z,68.20
2018-06-21T06:45:58.443Z,68.00
2018-06-21T06:48:28.203Z,67.70
2018-06-21T06:53:27.165Z,66.70
2018-06-21T06:55:56.660Z,67.00
2018-06-21T06:58:26.166Z,68.10
2018-06-21T07:00:55.707Z,66.00
2018-06-21T07:03:25.466Z,66.60
2018-06-21T07:05:55.080Z,65.90
2018-06-21T07:10:55.990Z,66.10
2018-06-21T07:13:25.171Z,68.00
2018-06-21T07:15:54.340Z,68.90
2018-06-21T07:18:23.722Z,67.70
2018-06-21T07:20:53.006Z,66.40
2018-06-21T07:23:22.304Z,69.30
2018-06-21T07:28:27.538Z,65.40
2018-06-21T07:30:56.755Z,65.30
2018-06-21T07:33:26.038Z,66.00
2018-06-21T07:35:58.275Z,65.40
2018-06-21T07:41:46.623Z,64.10
2018-06-21T07:44:15.914Z,63.10
2018-06-21T07:46:45.559Z,64.90
2018-06-21T07:49:15.172Z,66.30
2018-06-21T07:51:44.765Z,65.40
2018-06-21T07:54:14.404Z,66.60
2018-06-21T07:56:44.720Z,66.30
2018-06-21T07:59:14.504Z,67.80
2018-06-21T08:01:44.040Z,64.20
2018-06-21T08:04:13.758Z,64.80
2018-06-21T08:06:43.439Z,64.20
2018-06-21T08:09:14.178Z,63.70
2018-06-21T08:11:44.081Z,64.20
2018-06-21T08:14:13.661Z,62.80
2018-06-21T08:16:45.715Z,62.20
2018-06-21T08:19:15.341Z,63.10
2018-06-21T08:21:45.219Z,65.40
2018-06-21T08:24:14.801Z,65.60
2018-06-21T08:26:44.466Z,65.00
2018-06-21T08:29:14.441Z,64.90
2018-06-21T08:31:44.760Z,62.10
2018-06-21T08:34:14.361Z,62.70
2018-06-21T08:39:13.281Z,62.40
2018-06-21T08:41:42.773Z,61.30
2018-06-21T08:46:41.200Z,60.60
2018-06-21T08:49:10.781Z,62.60
2018-06-21T08:51:40.362Z,61.50
2018-06-21T08:54:10.222Z,64.30
2018-06-21T08:56:39.821Z,62.60
2018-06-21T08:59:09.425Z,61.80
2018-06-21T09:01:39.123Z,60.70
2018-06-21T09:04:08.761Z,60.70
2018-06-21T09:06:38.461Z,60.90
2018-06-21T09:09:10.024Z,61.00
2018-06-21T09:11:39.894Z,64.00
2018-06-21T09:14:09.501Z,58.90
2018-06-21T09:16:39.261Z,62.70
2018-06-21T09:19:33.761Z,61.90
2018-06-21T09:22:03.488Z,58.80
2018-06-21T09:27:02.461Z,59.30
2018-06-21T09:29:32.203Z,60.80
2018-06-21T09:32:02.005Z,59.30
2018-06-21T09:34:31.761Z,61.90
2018-06-21T09:37:01.461Z,62.10
2018-06-21T09:41:39.658Z,59.40
2018-06-21T09:46:48.359Z,64.30
2018-06-21T09:51:47.301Z,60.40
2018-06-21T09:54:17.039Z,60.10
2018-06-21T09:56:46.699Z,60.60
2018-06-21T09:59:16.402Z,59.70
2018-06-21T10:01:46.083Z,58.30
2018-06-21T10:04:15.732Z,57.80
2018-06-21T10:06:45.404Z,62.30
2018-06-21T10:09:15.284Z,58.60
2018-06-21T10:11:44.903Z,57.90
2018-06-21T10:14:14.663Z,58.70
2018-06-21T10:16:44.491Z,58.30
2018-06-21T10:19:14.283Z,58.30
2018-06-21T10:21:44.004Z,58.10
2018-06-21T10:24:13.803Z,58.00
2018-06-21T10:26:43.444Z,58.20
2018-06-21T10:29:13.323Z,57.40
2018-06-21T10:31:43.443Z,57.20
2018-06-21T10:34:13.123Z,57.00
2018-06-21T10:36:42.923Z,55.40
2018-06-21T10:41:42.962Z,58.50
2018-06-21T10:44:16.626Z,60.00
2018-06-21T10:46:46.483Z,58.20
2018-06-21T10:49:16.084Z,58.20
2018-06-21T10:51:45.924Z,57.70
2018-06-21T10:54:15.703Z,59.20
2018-06-21T10:56:48.005Z,57.50
2018-06-21T10:59:17.784Z,57.70
2018-06-21T11:01:49.045Z,58.20
2018-06-21T11:04:18.946Z,60.00
2018-06-21T11:06:48.694Z,60.50
2018-06-21T11:09:18.445Z,60.80
2018-06-21T11:11:48.244Z,61.90
2018-06-21T11:14:17.883Z,59.30
2018-06-21T11:19:16.904Z,59.60
2018-06-21T11:21:47.244Z,56.50
2018-06-21T11:24:18.669Z,58.90
2018-06-21T11:26:48.344Z,58.90
2018-06-21T11:29:18.103Z,57.80
2018-06-21T11:31:47.764Z,57.60
2018-06-21T11:34:17.404Z,57.40
2018-06-21T11:36:47.126Z,57.50
2018-06-21T11:39:17.064Z,58.10
2018-06-21T11:44:16.344Z,56.80
2018-06-21T11:46:46.623Z,56.90
2018-06-21T11:49:16.524Z,56.90
2018-06-21T11:51:46.265Z,58.60
2018-06-21T11:54:16.044Z,61.10
2018-06-21T11:56:45.704Z,58.10
2018-06-21T11:59:16.965Z,58.80
2018-06-21T12:01:47.262Z,57.80
2018-06-21T12:04:17.401Z,57.90
2018-06-21T12:22:10.600Z,55.60
2018-06-21T12:24:40.404Z,57.60
2018-06-21T12:27:10.161Z,54.20
2018-06-21T12:29:43.921Z,54.20
2018-06-21T12:32:18.642Z,56.30
2018-06-21T12:34:56.720Z,56.10
2018-06-21T12:37:26.741Z,56.50
2018-06-21T12:42:30.441Z,57.20
2018-06-21T12:45:00.543Z,57.50
2018-06-21T12:47:30.280Z,57.70
2018-06-21T12:50:00.025Z,56.90
2018-06-21T12:52:29.896Z,57.50
2018-06-21T12:54:59.620Z,57.90
2018-06-21T12:57:29.641Z,58.90
2018-06-21T12:59:59.382Z,56.30
2018-06-21T13:02:29.085Z,57.30
2018-06-21T13:04:58.945Z,58.40
2018-06-21T13:07:28.744Z,57.80
2018-06-21T13:10:09.253Z,58.40
2018-06-21T13:12:51.265Z,58.20
2018-06-21T13:15:21.242Z,58.10
2018-06-21T13:17:51.025Z,58.20
2018-06-21T13:20:20.904Z,58.90
2018-06-21T13:22:51.030Z,58.40
2018-06-21T13:25:21.046Z,57.70
2018-06-21T13:27:51.520Z,57.80
2018-06-21T13:30:21.180Z,56.00
2018-06-21T13:32:50.880Z,58.00
2018-06-21T13:35:20.660Z,56.20
2018-06-21T13:37:50.460Z,56.20
2018-06-21T13:40:20.201Z,56.70
2018-06-21T13:42:55.400Z,56.80
2018-06-21T13:45:25.121Z,57.80
2018-06-21T13:47:59.140Z,56.60
2018-06-21T13:50:29.139Z,57.30
2018-06-21T13:52:58.940Z,57.10
2018-06-21T13:55:29.003Z,56.50
2018-06-21T13:57:58.784Z,56.00
2018-06-21T14:00:29.081Z,55.90
2018-06-21T14:02:58.922Z,56.40
2018-06-21T14:05:28.746Z,57.70
2018-06-21T14:07:58.771Z,57.90
2018-06-21T14:10:28.462Z,58.20
2018-06-21T14:12:58.250Z,56.90
2018-06-21T14:15:27.904Z,56.60
2018-06-21T14:18:01.642Z,55.40
2018-06-21T14:23:05.640Z,53.80
2018-06-21T14:25:35.280Z,55.40
2018-06-21T14:28:06.100Z,55.20
2018-06-21T14:30:35.841Z,55.00
2018-06-21T14:33:05.991Z,56.40
2018-06-21T14:35:35.719Z,55.70
2018-06-21T14:40:34.941Z,58.70
2018-06-21T14:43:04.740Z,57.20
2018-06-21T14:45:34.309Z,55.80
2018-06-21T14:50:34.003Z,56.80
2018-06-21T14:53:03.703Z,54.80
2018-06-21T14:55:33.480Z,55.00
2018-06-21T14:58:03.340Z,56.00
2018-06-21T15:00:32.881Z,55.30
2018-06-21T15:03:02.633Z,55.40
2018-06-21T15:05:32.521Z,56.00
2018-06-21T15:08:02.240Z,55.60
2018-06-21T15:10:32.021Z,56.10
2018-06-21T15:13:01.742Z,55.70
2018-06-21T15:15:32.200Z,55.80
2018-06-21T15:18:01.940Z,54.50
2018-06-21T15:23:05.689Z,55.30
2018-06-21T15:25:35.401Z,55.60
2018-06-21T15:28:05.160Z,54.70
2018-06-21T15:30:34.841Z,54.90
2018-06-21T15:33:04.661Z,54.40
2018-06-21T15:35:34.348Z,54.30
2018-06-21T15:38:03.928Z,55.60
2018-06-21T15:40:33.721Z,56.70
2018-06-21T15:43:03.483Z,56.60
2018-06-21T15:48:02.480Z,56.00
2018-06-21T15:50:32.342Z,56.20
2018-06-21T15:53:02.122Z,56.60
2018-06-21T15:55:31.900Z,57.10
2018-06-21T15:58:01.789Z,56.40
2018-06-21T16:00:31.941Z,56.80
2018-06-21T16:03:01.781Z,56.70
2018-06-21T16:08:01.344Z,56.60
2018-06-21T16:10:31.721Z,57.30
2018-06-21T16:13:01.700Z,57.60
2018-06-21T16:15:31.519Z,58.40
2018-06-21T16:18:01.380Z,57.80
2018-06-21T16:20:31.081Z,57.60
2018-06-21T16:23:00.859Z,57.80
2018-06-21T16:25:30.540Z,58.00
2018-06-21T16:28:00.319Z,58.60
2018-06-21T16:30:30.663Z,59.20
2018-06-21T16:33:00.479Z,59.80
2018-06-21T16:35:30.319Z,60.90
2018-06-21T16:38:00.034Z,61.20
2018-06-21T16:40:30.401Z,61.80
2018-06-21T16:43:00.761Z,62.70
2018-06-21T16:45:30.559Z,62.60
2018-06-21T16:48:00.341Z,65.00
2018-06-21T16:50:30.021Z,66.50
2018-06-21T16:52:59.620Z,68.00
2018-06-21T16:57:58.779Z,59.00
2018-06-21T17:00:28.406Z,62.10
2018-06-21T17:02:58.166Z,61.80
2018-06-21T17:05:27.741Z,62.60
2018-06-21T17:07:57.598Z,63.90
2018-06-21T17:10:27.526Z,64.70
2018-06-21T17:12:57.279Z,64.90
2018-06-21T17:15:32.502Z,67.70
2018-06-21T17:18:02.281Z,70.10
2018-06-21T17:20:32.062Z,71.10
2018-06-21T17:25:30.921Z,73.30
2018-06-21T17:28:00.681Z,75.60
2018-06-21T17:30:30.482Z,76.20
2018-06-21T17:33:00.142Z,78.00
2018-06-21T17:35:29.921Z,77.20
2018-06-21T17:37:59.583Z,74.70
2018-06-21T17:40:29.389Z,71.40
2018-06-21T17:42:58.960Z,75.00
2018-06-21T17:45:29.141Z,79.20
2018-06-21T17:48:00.044Z,83.70
2018-06-21T17:50:29.821Z,88.70
2018-06-21T17:52:59.582Z,91.50
2018-06-21T17:55:29.265Z,92.30
2018-06-21T17:57:59.269Z,94.10
2018-06-21T18:00:28.851Z,95.00
2018-06-21T18:05:29.320Z,97.50
2018-06-21T18:07:59.158Z,98.60
2018-06-21T18:10:28.961Z,99.90
2018-06-21T18:12:59.621Z,99.90
2018-06-21T18:15:29.667Z,99.90
2018-06-21T18:17:59.359Z,99.90
2018-06-21T18:20:29.202Z,99.90
2018-06-21T18:22:59.239Z,99.90
2018-06-21T18:25:28.862Z,99.90
2018-06-21T18:27:59.921Z,99.90
2018-06-21T18:30:29.821Z,99.90
2018-06-21T18:32:59.881Z,99.90
2018-06-21T18:35:29.623Z,99.90
2018-06-21T18:37:59.359Z,99.90
2018-06-21T18:40:29.181Z,99.90
2018-06-21T18:43:02.880Z,99.90
2018-06-21T18:45:32.523Z,99.90
2018-06-21T18:48:02.279Z,99.90
2018-06-21T18:50:31.940Z,99.90
2018-06-21T18:53:01.480Z,99.90
2018-06-21T18:55:31.586Z,99.90
2018-06-21T18:58:01.606Z,99.90
2018-06-21T19:00:31.775Z,99.90
2018-06-21T19:03:02.482Z,99.90
2018-06-21T19:05:32.665Z,99.90
2018-06-21T19:08:07.125Z,99.90
2018-06-21T19:10:43.023Z,99.90
2018-06-21T19:13:13.084Z,99.90
2018-06-21T19:15:42.824Z,99.90
2018-06-21T19:18:12.863Z,99.90
2018-06-21T19:20:42.541Z,99.90
2018-06-21T19:23:12.241Z,99.90
2018-06-21T19:25:42.007Z,99.90
2018-06-21T19:28:11.702Z,99.90
2018-06-21T19:30:42.191Z,99.90
2018-06-21T19:33:11.946Z,99.90
2018-06-21T19:35:41.723Z,99.90
2018-06-21T19:38:11.306Z,99.90
2018-06-21T19:40:41.126Z,99.90
2018-06-21T19:43:11.012Z,99.90
2018-06-21T19:45:41.490Z,99.90
2018-06-21T19:48:12.426Z,99.90
2018-06-21T19:50:42.439Z,99.90
2018-06-21T19:53:13.827Z,99.90
2018-06-21T19:55:43.566Z,99.90
2018-06-21T19:58:17.785Z,99.90
2018-06-21T20:00:47.510Z,99.90
2018-06-21T20:03:17.521Z,99.90
2018-06-21T20:05:47.316Z,99.90
2018-06-21T20:08:17.361Z,99.90
2018-06-21T20:10:51.086Z,99.90
2018-06-21T20:13:24.823Z,99.90
2018-06-21T20:15:55.588Z,99.90
2018-06-21T20:18:25.318Z,99.90
2018-06-21T20:23:26.089Z,99.90
2018-06-21T20:25:57.785Z,99.90
2018-06-21T20:28:31.424Z,99.90
2018-06-21T20:31:02.681Z,99.90
2018-06-21T20:33:33.845Z,99.90
2018-06-21T20:36:04.866Z,99.90
2018-06-21T20:38:37.548Z,99.90
2018-06-21T20:41:07.852Z,99.90
2018-06-21T20:43:41.723Z,99.90
2018-06-21T20:48:43.441Z,99.90
2018-06-21T20:51:14.830Z,99.90
2018-06-21T20:53:50.082Z,99.90
2018-06-21T20:56:19.913Z,99.90
2018-06-21T20:58:52.163Z,99.90
2018-06-21T21:01:24.558Z,99.90
2018-06-21T21:03:55.909Z,99.90
2018-06-21T21:06:27.807Z,99.90
2018-06-21T21:08:57.669Z,99.90
2018-06-21T21:11:27.485Z,99.90
2018-06-21T21:13:57.186Z,99.90
2018-06-21T21:16:27.246Z,99.90
2018-06-21T21:18:57.045Z,99.90
2018-06-21T21:21:26.740Z,99.90
2018-06-21T21:23:56.566Z,99.90
2018-06-21T21:26:26.344Z,99.90
2018-06-21T21:28:56.597Z,99.90
2018-06-21T21:31:26.741Z,99.90
2018-06-21T21:33:56.553Z,99.90
2018-06-21T21:36:26.321Z,99.90
2018-06-21T21:38:56.041Z,99.90
2018-06-21T21:41:25.761Z,99.90
2018-06-21T21:43:55.601Z,99.90
2018-06-21T21:46:25.362Z,99.90
2018-06-21T21:48:55.061Z,99.90
2018-06-21T21:51:26.023Z,99.90
2018-06-21T21:53:56.219Z,99.90
2018-06-21T21:59:00.030Z,99.90
2018-06-21T22:03:59.080Z,99.90
2018-06-21T22:06:29.099Z,99.90
2018-06-21T22:08:58.907Z,99.90
2018-06-21T22:11:28.700Z,99.90
2018-06-21T22:14:03.300Z,99.90
2018-06-21T22:16:34.600Z,99.90
2018-06-21T22:19:04.320Z,99.90
2018-06-21T22:21:34.109Z,99.90
2018-06-21T22:24:03.660Z,99.90
2018-06-21T22:26:33.354Z,99.90
2018-06-21T22:29:03.021Z,99.90
2018-06-21T22:31:33.399Z,99.90
2018-06-21T22:34:03.600Z,99.90
2018-06-21T22:36:33.421Z,99.90
2018-06-21T22:39:03.966Z,99.90
2018-06-21T22:41:33.959Z,99.90
2018-06-21T22:44:03.879Z,99.90
2018-06-21T22:46:33.959Z,99.90
2018-06-21T22:49:03.739Z,99.90
2018-06-21T22:54:03.239Z,99.90
2018-06-21T22:56:33.080Z,99.90
2018-06-21T22:59:02.643Z,99.90
2018-06-21T23:04:01.666Z,99.90
2018-06-21T23:06:31.693Z,99.90
2018-06-21T23:09:01.687Z,99.90
2018-06-21T23:11:31.345Z,99.90
2018-06-21T23:14:01.085Z,99.90
2018-06-21T23:16:30.785Z,99.90
2018-06-21T23:19:11.685Z,99.90
2018-06-21T23:21:41.405Z,99.90
2018-06-21T23:24:11.245Z,99.90
2018-06-21T23:26:41.096Z,99.90
2018-06-21T23:29:10.706Z,99.90
2018-06-21T23:31:40.874Z,99.90
2018-06-21T23:36:39.785Z,99.90
2018-06-21T23:39:11.045Z,99.90
2018-06-21T23:41:42.145Z,99.90
2018-06-21T23:44:13.085Z,99.90
2018-06-21T23:46:43.585Z,99.90
2018-06-21T23:49:14.325Z,99.90
2018-06-21T23:51:44.051Z,99.90
2018-06-21T23:54:14.724Z,99.90
2018-06-21T23:56:45.165Z,99.90
2018-06-21T23:59:14.944Z,99.90
